Time;durP1;ratioP1;P1;durP2;ratioP2;P2;SDS_P1;SDS_P2;PMS_P1;PMS_P2;Temp;Humidity;BMP_temperature;BMP_pressure;BME280_temperature;BME280_humidity;BME280_pressure;Samples;Min_cycle;Max_cycle;Signal;HPM_P1;HPM_P2
2022/10/05 00:00:12;;;;;;;16.03;5.30;;;;;;;19.96;63.00;100819.59;5056406;28;20414;-69
2022/10/05 00:02:38;;;;;;;15.80;6.00;;;;;;;19.93;63.21;100817.50;5056536;28;20179;-70
2022/10/05 00:05:10;;;;;;;20.20;6.00;;;;;;;19.93;63.05;100811.78;5056072;28;20436;-70
2022/10/05 00:07:36;;;;;;;12.10;6.03;;;;;;;19.92;63.56;100812.97;5057361;28;20720;-69
2022/10/05 00:10:01;;;;;;;15.57;5.67;;;;;;;19.92;63.21;100804.38;5039875;28;20421;-70
2022/10/05 00:12:28;;;;;;;10.97;5.23;;;;;;;19.93;63.27;100813.81;5039666;28;20180;-69
2022/10/05 00:14:56;;;;;;;15.40;5.67;;;;;;;19.94;63.00;100812.59;5056366;28;20513;-69
2022/10/05 00:17:23;;;;;;;14.10;6.00;;;;;;;19.95;63.21;100809.34;5056877;28;20390;-69
2022/10/05 00:19:52;;;;;;;10.77;5.67;;;;;;;19.92;62.92;100812.97;5074131;28;20818;-69
2022/10/05 00:22:23;;;;;;;11.63;5.10;;;;;;;19.93;63.04;100810.94;5073985;28;20410;-69
2022/10/05 00:24:55;;;;;;;12.97;5.70;;;;;;;19.92;63.29;100815.81;5073430;28;21037;-69
2022/10/05 00:27:24;;;;;;;13.13;5.43;;;;;;;19.94;63.33;100806.84;5071798;28;20883;-69
2022/10/05 00:29:50;;;;;;;11.57;4.90;;;;;;;19.92;63.27;100812.97;5088695;28;20408;-69
2022/10/05 00:32:15;;;;;;;14.17;5.80;;;;;;;19.94;63.28;100813.44;5088647;28;20446;-70
2022/10/05 00:34:41;;;;;;;11.20;4.73;;;;;;;19.92;63.22;100815.00;5073047;28;20433;-69
2022/10/05 00:37:06;;;;;;;12.23;6.03;;;;;;;19.92;63.50;100821.56;5071727;28;20486;-70
2022/10/05 00:39:32;;;;;;;12.50;5.77;;;;;;;19.91;63.42;100814.16;5072919;28;20163;-70
2022/10/05 00:42:14;;;;;;;14.23;5.40;;;;;;;19.93;63.47;100814.66;5071668;28;20269;-69
2022/10/05 00:44:50;;;;;;;12.80;5.87;;;;;;;19.91;63.41;100814.16;5088877;28;20660;-69
2022/10/05 00:47:27;;;;;;;14.93;5.70;;;;;;;19.90;63.15;100812.53;5055893;28;20921;-70
2022/10/05 00:50:12;;;;;;;10.77;5.43;;;;;;;19.93;63.34;100816.66;5071624;28;20844;-69
2022/10/05 00:52:53;;;;;;;12.57;5.50;;;;;;;19.90;63.01;100821.13;5086034;28;20461;-67
2022/10/05 00:55:50;;;;;;;11.23;4.90;;;;;;;19.89;63.30;100815.75;5067479;28;20429;-67
2022/10/05 00:58:46;;;;;;;12.87;5.47;;;;;;;19.90;63.13;100818.25;5055377;28;20425;-70
2022/10/05 01:01:14;;;;;;;11.67;5.20;;;;;;;19.90;63.31;100821.13;5070224;28;20430;-69
2022/10/05 01:03:58;;;;;;;10.20;4.70;;;;;;;19.89;63.25;100818.63;5042513;28;20435;-70
2022/10/05 01:06:46;;;;;;;10.53;5.63;;;;;;;19.90;63.04;100808.81;5073014;28;20413;-70
2022/10/05 01:09:11;;;;;;;14.07;5.50;;;;;;;19.89;63.38;100808.00;5057753;28;20575;-69
2022/10/05 01:12:12;;;;;;;10.80;4.97;;;;;;;19.88;63.34;100814.94;5072876;28;20499;-69
2022/10/05 01:15:03;;;;;;;14.20;5.00;;;;;;;19.91;63.29;100805.56;5072485;28;20191;-69
2022/10/05 01:17:37;;;;;;;12.00;5.10;;;;;;;19.90;63.41;100806.78;5073005;28;20454;-69
2022/10/05 01:20:27;;;;;;;13.53;5.70;;;;;;;19.90;63.29;100805.94;5073096;28;21194;-69
2022/10/05 01:23:07;;;;;;;9.00;4.40;;;;;;;19.90;63.40;100805.94;5056993;28;20413;-69
2022/10/05 01:26:00;;;;;;;11.30;5.00;;;;;;;19.88;63.39;100806.34;5036363;28;20437;-70
2022/10/05 01:29:01;;;;;;;9.23;5.10;;;;;;;19.90;63.00;100795.31;5052626;28;20461;-69
2022/10/05 01:31:53;;;;;;;16.13;6.17;;;;;;;19.88;63.36;100791.19;5001551;28;20781;-70
2022/10/05 01:34:53;;;;;;;11.67;4.90;;;;;;;19.90;63.61;100791.63;5072299;28;20421;-69
2022/10/05 01:37:22;;;;;;;10.80;5.20;;;;;;;19.87;63.79;100787.47;5012569;28;20786;-69
2022/10/05 01:40:13;;;;;;;13.50;5.53;;;;;;;19.86;63.43;100788.69;5054869;28;20774;-69
2022/10/05 01:42:47;;;;;;;11.83;5.20;;;;;;;19.87;63.71;100796.06;5069479;28;20426;-69
2022/10/05 01:45:16;;;;;;;9.90;5.10;;;;;;;19.86;63.59;100794.41;5072702;28;20756;-69
2022/10/05 01:47:43;;;;;;;13.90;5.13;;;;;;;19.89;63.41;100787.94;5072369;28;20401;-69
2022/10/05 01:50:21;;;;;;;10.50;5.00;;;;;;;19.88;63.28;100794.88;5054595;28;20555;-69
2022/10/05 01:52:52;;;;;;;11.00;4.50;;;;;;;19.84;63.53;100793.97;5072244;28;20837;-69
2022/10/05 01:55:31;;;;;;;12.77;5.43;;;;;;;19.85;63.58;100791.91;5054369;28;20425;-69
2022/10/05 01:58:05;;;;;;;10.07;4.40;;;;;;;19.87;63.61;100790.34;5072099;28;20410;-69
2022/10/05 02:00:32;;;;;;;10.33;4.80;;;;;;;19.84;63.35;100796.84;5053155;28;20855;-69
2022/10/05 02:03:19;;;;;;;13.17;5.33;;;;;;;19.86;63.63;100788.69;5053088;28;20406;-69
2022/10/05 02:05:51;;;;;;;13.83;4.70;;;;;;;19.87;63.37;100792.41;5037038;28;20429;-69
2022/10/05 02:08:19;;;;;;;14.53;5.13;;;;;;;19.84;63.25;100796.00;5053108;28;20449;-69
2022/10/05 02:11:04;;;;;;;11.47;4.87;;;;;;;19.84;63.39;100793.97;5052959;28;20413;-70
2022/10/05 02:13:32;;;;;;;9.77;4.80;;;;;;;19.85;63.34;100798.50;5053567;28;20484;-69
2022/10/05 02:16:20;;;;;;;8.20;4.47;;;;;;;19.86;63.76;100800.16;5071408;28;20963;-69
2022/10/05 02:19:01;;;;;;;10.67;4.60;;;;;;;19.84;63.59;100802.56;5085937;28;20421;-69
2022/10/05 02:21:26;;;;;;;14.33;5.27;;;;;;;19.84;63.39;100802.56;5069161;28;20401;-69
2022/10/05 02:23:53;;;;;;;9.50;4.60;;;;;;;19.85;63.48;100804.22;5070477;28;20923;-69
2022/10/05 02:26:18;;;;;;;9.00;4.37;;;;;;;19.84;63.51;100802.56;5037261;28;20242;-68
2022/10/05 02:28:51;;;;;;;12.07;5.20;;;;;;;19.84;63.13;100799.72;5071638;28;20856;-69
2022/10/05 02:31:28;;;;;;;11.50;5.13;;;;;;;19.84;63.35;100805.44;5037441;28;20257;-69
2022/10/05 02:34:23;;;;;;;7.50;4.53;;;;;;;19.84;63.66;100801.72;5053575;28;20904;-68
2022/10/05 02:37:11;;;;;;;9.23;4.67;;;;;;;19.83;63.51;100815.25;5053594;28;20478;-70
2022/10/05 02:39:53;;;;;;;9.60;4.40;;;;;;;19.83;63.39;100808.69;5071607;28;20856;-69
2022/10/05 02:42:27;;;;;;;9.37;4.77;;;;;;;19.84;63.33;100813.19;5053385;28;20428;-69
2022/10/05 02:45:07;;;;;;;7.17;4.10;;;;;;;19.84;63.75;100807.47;5053000;28;20421;-70
2022/10/05 02:47:54;;;;;;;9.10;4.33;;;;;;;19.83;63.59;100806.66;5071264;28;20853;-70
2022/10/05 02:50:26;;;;;;;10.00;4.50;;;;;;;19.83;63.34;100800.94;5070748;28;20429;-69
2022/10/05 02:53:03;;;;;;;14.40;5.13;;;;;;;19.84;63.38;100810.34;5070763;28;20469;-69
2022/10/05 02:55:37;;;;;;;10.30;4.43;;;;;;;19.82;63.56;100799.25;5070316;28;20431;-69
2022/10/05 02:58:18;;;;;;;8.03;3.80;;;;;;;19.82;63.45;100787.78;5068316;28;20482;-69
2022/10/05 03:01:21;;;;;;;12.27;4.17;;;;;;;19.81;63.31;100783.25;5036238;28;20398;-69
2022/10/05 03:04:03;;;;;;;10.87;4.40;;;;;;;19.83;63.49;100783.72;5069271;28;20417;-69
2022/10/05 03:06:31;;;;;;;6.87;3.50;;;;;;;19.79;63.41;100782.81;5036928;28;20454;-70
2022/10/05 03:09:04;;;;;;;11.20;4.23;;;;;;;19.80;63.30;100778.75;5051862;28;20469;-69
2022/10/05 03:11:40;;;;;;;13.33;4.13;;;;;;;19.82;63.74;100773.44;5035628;28;20416;-69
2022/10/05 03:14:20;;;;;;;9.60;4.10;;;;;;;19.81;63.38;100771.81;5051745;28;20976;-69
2022/10/05 03:17:05;;;;;;;8.50;4.67;;;;;;;19.81;63.48;100768.94;5052069;28;20942;-69
2022/10/05 03:19:40;;;;;;;7.47;3.70;;;;;;;19.80;63.42;100772.16;5053130;28;20771;-70
2022/10/05 03:22:30;;;;;;;13.40;4.43;;;;;;;19.81;63.39;100768.94;5070972;28;20508;-69
2022/10/05 03:25:17;;;;;;;10.30;4.30;;;;;;;19.82;63.39;100764.06;5070974;28;20406;-69
2022/10/05 03:27:54;;;;;;;10.63;4.03;;;;;;;19.81;63.29;100768.13;5057391;28;20485;-69
2022/10/05 03:30:22;;;;;;;7.37;3.83;;;;;;;19.82;63.40;100761.19;5075232;28;20554;-69
2022/10/05 03:33:05;;;;;;;6.77;4.10;;;;;;;19.83;63.47;100765.69;5040062;28;20406;-69
2022/10/05 03:35:50;;;;;;;8.00;4.03;;;;;;;19.80;63.43;100761.56;5055039;28;20426;-70
2022/10/05 03:38:36;;;;;;;10.40;4.37;;;;;;;19.81;63.46;100756.66;5055256;28;20394;-70
2022/10/05 03:41:14;;;;;;;7.33;3.90;;;;;;;19.82;63.26;100750.53;5054943;28;20778;-69
2022/10/05 03:44:08;;;;;;;8.80;4.20;;;;;;;19.85;63.18;100754.69;5054799;28;20788;-69
2022/10/05 03:46:57;;;;;;;7.83;4.10;;;;;;;19.82;63.37;100746.84;5049900;28;20430;-69
2022/10/05 03:50:00;;;;;;;8.40;4.00;;;;;;;19.81;63.42;100745.22;5053317;28;20527;-70
2022/10/05 03:52:34;;;;;;;6.50;3.40;;;;;;;19.84;63.34;100745.28;5054399;28;21013;-69
2022/10/05 03:55:23;;;;;;;11.50;4.17;;;;;;;19.84;63.55;100753.03;5050455;28;20499;-70
2022/10/05 03:57:49;;;;;;;7.47;3.50;;;;;;;19.83;63.26;100749.34;5056513;28;20417;-69
2022/10/05 04:00:19;;;;;;;7.57;4.10;;;;;;;19.81;63.32;100743.16;5039999;28;20413;-69
2022/10/05 04:03:23;;;;;;;7.77;3.63;;;;;;;19.80;63.43;100738.63;5056409;28;20164;-70
2022/10/05 04:05:52;;;;;;;7.23;4.13;;;;;;;19.78;63.35;100735.34;5073744;28;20420;-70
2022/10/05 04:08:27;;;;;;;6.67;3.70;;;;;;;19.81;63.56;100740.28;5074117;28;20461;-69
2022/10/05 04:10:54;;;;;;;8.13;4.00;;;;;;;19.79;63.40;100734.13;5074429;28;20757;-69
2022/10/05 04:13:43;;;;;;;5.73;3.63;;;;;;;19.77;63.46;100736.50;5039564;28;20516;-70
2022/10/05 04:16:24;;;;;;;8.97;4.00;;;;;;;19.81;63.31;100731.69;5056355;28;20450;-69
2022/10/05 04:19:01;;;;;;;8.47;4.03;;;;;;;19.80;63.39;100730.03;5074078;28;20390;-70
2022/10/05 04:21:54;;;;;;;8.53;3.47;;;;;;;19.79;63.43;100741.88;5040652;28;20895;-70
2022/10/05 04:24:29;;;;;;;6.90;3.50;;;;;;;19.80;63.68;100750.09;5062983;28;20940;-69
2022/10/05 04:27:00;;;;;;;8.60;3.40;;;;;;;19.81;63.19;100748.88;5057190;28;20515;-68
2022/10/05 04:29:49;;;;;;;9.50;3.70;;;;;;;19.81;63.40;100753.81;5056151;28;20551;-69
2022/10/05 04:32:14;;;;;;;9.17;3.83;;;;;;;19.82;63.22;100741.94;5058653;28;20421;-69
2022/10/05 04:34:42;;;;;;;9.33;4.17;;;;;;;19.81;63.19;100751.75;5073938;28;20880;-69
2022/10/05 04:37:13;;;;;;;7.97;3.40;;;;;;;19.80;63.23;100741.50;5073809;28;20163;-69
2022/10/05 04:40:01;;;;;;;7.87;3.60;;;;;;;19.80;63.20;100747.22;5039651;28;20413;-70
2022/10/05 04:42:54;;;;;;;7.40;3.77;;;;;;;19.78;63.44;100740.22;5039869;28;20777;-70
2022/10/05 04:45:31;;;;;;;7.87;3.60;;;;;;;19.81;63.20;100746.00;5086410;28;20762;-70
2022/10/05 04:48:01;;;;;;;9.37;3.50;;;;;;;19.79;63.30;100742.72;5073410;28;20449;-69
2022/10/05 04:50:36;;;;;;;6.83;3.37;;;;;;;19.80;63.32;100741.50;5089071;28;20884;-69
2022/10/05 04:53:15;;;;;;;6.70;4.10;;;;;;;19.79;63.47;100748.44;5088199;28;20467;-69
2022/10/05 04:55:52;;;;;;;6.53;3.57;;;;;;;19.79;63.25;100750.47;5039418;28;20417;-70
2022/10/05 04:58:36;;;;;;;5.60;3.33;;;;;;;19.80;63.19;100758.69;5073353;28;20412;-70
2022/10/05 05:01:55;;;;;;;6.80;3.80;;;;;;;19.80;63.34;100758.69;5039391;28;20417;-68
2022/10/05 05:04:34;;;;;;;6.63;3.20;;;;;;;19.78;63.30;100758.25;5005322;28;20432;-70
2022/10/05 05:07:27;;;;;;;7.47;3.57;;;;;;;19.80;63.37;100755.81;4984530;28;20451;-70
2022/10/05 05:10:06;;;;;;;7.23;3.60;;;;;;;19.79;63.41;100757.03;5052117;28;20473;-70
2022/10/05 05:12:48;;;;;;;5.40;3.10;;;;;;;19.78;63.31;100755.38;5088734;28;20445;-70
2022/10/05 05:15:34;;;;;;;6.53;3.77;;;;;;;19.80;63.23;100758.69;5070445;28;20815;-70
2022/10/05 05:18:24;;;;;;;5.30;2.97;;;;;;;19.78;63.25;100761.13;5073012;28;20422;-70
2022/10/05 05:21:25;;;;;;;6.27;3.30;;;;;;;19.79;63.43;100765.63;5073149;28;20406;-69
2022/10/05 05:24:15;;;;;;;4.60;2.90;;;;;;;19.80;63.23;100777.91;5068493;28;20490;-71
2022/10/05 05:27:17;;;;;;;7.77;3.73;;;;;;;19.82;63.34;100776.31;5056731;28;20747;-70
2022/10/05 05:29:56;;;;;;;7.60;3.53;;;;;;;19.81;63.22;100783.25;5071831;28;20542;-70
2022/10/05 05:32:47;;;;;;;6.23;2.97;;;;;;;19.80;63.17;100784.47;5072712;28;20402;-70
2022/10/05 05:35:36;;;;;;;5.20;3.40;;;;;;;19.82;63.36;100779.19;5056593;28;20409;-70
2022/10/05 05:38:20;;;;;;;7.83;2.90;;;;;;;19.81;63.20;100791.84;5072816;28;20426;-70
2022/10/05 05:41:07;;;;;;;6.63;3.07;;;;;;;19.80;63.37;100798.81;5072420;28;20466;-70
2022/10/05 05:43:53;;;;;;;6.13;3.50;;;;;;;19.81;63.13;100793.91;5072603;28;20837;-70
2022/10/05 05:46:25;;;;;;;8.20;3.90;;;;;;;19.81;63.08;100799.66;5071344;28;20902;-70
2022/10/05 05:48:51;;;;;;;4.97;3.10;;;;;;;19.80;63.09;100800.81;5035633;28;20822;-70
2022/10/05 05:51:20;;;;;;;7.40;3.57;;;;;;;19.81;63.19;100791.84;5068688;28;20421;-69
2022/10/05 05:53:48;;;;;;;6.07;3.40;;;;;;;19.80;63.21;100800.81;5051118;28;20229;-70
2022/10/05 05:56:33;;;;;;;4.63;3.00;;;;;;;19.79;63.12;100791.41;5036421;28;20421;-70
2022/10/05 05:59:29;;;;;;;6.63;3.20;;;;;;;19.79;63.15;100799.16;5071254;28;20496;-70
2022/10/05 06:02:03;;;;;;;5.47;3.17;;;;;;;19.79;63.44;100811.47;5064601;28;20446;-70
2022/10/05 06:04:42;;;;;;;5.40;2.90;;;;;;;19.81;63.09;100803.31;5081654;28;20437;-70
2022/10/05 06:07:10;;;;;;;5.20;3.20;;;;;;;19.81;63.08;100806.19;5061566;28;20426;-70
2022/10/05 06:10:02;;;;;;;5.03;3.13;;;;;;;19.78;63.31;100800.38;5067324;28;21068;-70
2022/10/05 06:12:36;;;;;;;7.83;3.50;;;;;;;19.79;63.52;100816.38;5050702;28;20436;-70
2022/10/05 06:15:27;;;;;;;6.23;3.57;;;;;;;19.79;63.40;100816.38;5034124;28;20519;-70
2022/10/05 06:17:54;;;;;;;5.97;3.43;;;;;;;19.79;63.24;100820.06;5050858;28;20779;-70
2022/10/05 06:20:39;;;;;;;6.50;3.50;;;;;;;19.80;63.32;100823.75;5042422;28;20460;-70
2022/10/05 06:23:27;;;;;;;5.60;3.07;;;;;;;19.78;63.29;100820.44;5024621;28;20414;-69
2022/10/05 06:26:10;;;;;;;6.27;3.30;;;;;;;19.76;63.51;100823.69;5043659;28;20542;-70
2022/10/05 06:28:35;;;;;;;4.73;2.73;;;;;;;19.78;63.38;100824.16;5067007;28;20458;-69
2022/10/05 06:31:20;;;;;;;7.37;3.87;;;;;;;19.80;63.32;100830.31;5058076;28;20437;-69
2022/10/05 06:33:50;;;;;;;7.53;3.50;;;;;;;19.80;63.29;100832.34;5038344;28;20262;-70
2022/10/05 06:36:42;;;;;;;5.47;3.13;;;;;;;19.81;63.41;100831.16;5050355;28;20425;-70
2022/10/05 06:39:14;;;;;;;4.60;2.40;;;;;;;19.81;63.38;100834.84;5044952;28;20428;-69
2022/10/05 06:42:12;;;;;;;5.30;3.07;;;;;;;19.82;63.22;100839.34;5057464;28;20555;-70
2022/10/05 06:44:56;;;;;;;5.63;3.10;;;;;;;19.81;63.18;100839.75;5041656;28;20424;-70
2022/10/05 06:47:38;;;;;;;6.13;2.87;;;;;;;19.79;63.44;100840.13;5053714;28;20784;-70
2022/10/05 06:50:28;;;;;;;5.13;3.03;;;;;;;19.80;63.33;100841.78;5055050;28;20802;-70
2022/10/05 06:53:26;;;;;;;6.10;3.50;;;;;;;19.80;63.50;100852.41;5056804;28;20554;-69
2022/10/05 06:55:55;;;;;;;6.90;3.23;;;;;;;19.79;63.24;100850.75;5040728;28;20421;-70
2022/10/05 06:58:26;;;;;;;4.73;2.80;;;;;;;19.79;62.99;100851.59;5059529;28;20422;-70
2022/10/05 07:00:57;;;;;;;7.90;3.00;;;;;;;19.80;63.39;100853.25;5062580;28;20417;-70
2022/10/05 07:03:47;;;;;;;3.93;2.90;;;;;;;19.82;63.27;100859.41;5047737;28;20429;-68
2022/10/05 07:06:16;;;;;;;4.53;2.70;;;;;;;19.80;63.27;100853.25;5058257;28;20430;-70
2022/10/05 07:08:52;;;;;;;4.93;2.93;;;;;;;19.80;63.36;100856.09;5024263;28;20457;-70
2022/10/05 07:11:26;;;;;;;4.97;2.90;;;;;;;19.79;63.17;100847.88;5037274;28;20531;-70
2022/10/05 07:14:10;;;;;;;4.83;2.47;;;;;;;19.83;63.24;100858.22;5053011;28;20416;-71
2022/10/05 07:16:44;;;;;;;6.07;3.10;;;;;;;19.80;63.69;100850.38;5055837;28;20413;-70
2022/10/05 07:19:34;;;;;;;6.70;3.30;;;;;;;19.81;63.31;100843.44;5026775;28;20478;-70
2022/10/05 07:22:21;;;;;;;4.53;2.63;;;;;;;19.81;63.22;100842.63;5056879;28;20425;-70
2022/10/05 07:25:07;;;;;;;4.60;3.00;;;;;;;19.80;63.23;100847.50;5045263;28;20425;-70
2022/10/05 07:27:34;;;;;;;5.77;3.40;;;;;;;19.79;63.50;100848.72;5055415;28;20425;-69
2022/10/05 07:30:10;;;;;;;5.57;3.20;;;;;;;19.80;63.40;100838.91;5035512;28;20462;-71
2022/10/05 07:32:41;;;;;;;4.90;2.80;;;;;;;19.77;63.70;100842.53;5069007;28;20461;-70
2022/10/05 07:37:52;;;;;;;5.37;3.10;;;;;;;19.80;63.44;100841.78;5054848;28;20479;-70
2022/10/05 07:38:00;;;;;;;4.83;2.73;;;;;;;19.81;63.75;100842.63;5043257;28;20417;-70
2022/10/05 07:40:38;;;;;;;4.53;2.80;;;;;;;19.80;63.38;100855.25;5073989;28;20425;-70
2022/10/05 07:43:07;;;;;;;4.00;2.70;;;;;;;19.82;63.40;100850.81;5053430;28;20432;-70
2022/10/05 07:46:20;;;;;;;7.40;3.63;;;;;;;19.81;63.21;100843.44;5055896;28;20417;-70
2022/10/05 07:49:02;;;;;;;4.10;2.63;;;;;;;19.78;63.26;100847.06;5016642;28;20567;-70
2022/10/05 07:51:40;;;;;;;3.60;2.53;;;;;;;19.79;63.47;100850.75;5049962;28;20414;-70
2022/10/05 07:54:18;;;;;;;3.53;2.63;;;;;;;19.81;63.42;100851.22;5052391;28;20430;-70
2022/10/05 07:56:45;;;;;;;4.50;2.73;;;;;;;19.81;63.35;100848.34;5052406;28;20513;-70
2022/10/05 07:59:29;;;;;;;6.80;2.90;;;;;;;19.83;63.39;100845.94;5069496;28;20769;-70
2022/10/05 08:02:04;;;;;;;4.13;2.50;;;;;;;19.81;63.43;100843.44;5054060;28;20434;-70
2022/10/05 08:04:39;;;;;;;5.20;2.90;;;;;;;19.79;63.41;100843.00;5066758;28;20473;-69
2022/10/05 08:07:05;;;;;;;5.27;2.90;;;;;;;19.80;63.45;100840.94;5070721;28;20494;-69
2022/10/05 08:09:49;;;;;;;4.60;2.70;;;;;;;19.78;63.41;100835.59;5033121;28;20861;-70
2022/10/05 08:12:23;;;;;;;5.90;2.80;;;;;;;19.76;63.28;100840.06;5050798;28;20553;-70
2022/10/05 08:15:02;;;;;;;4.17;2.70;;;;;;;19.77;63.42;100838.84;5054880;28;20426;-68
2022/10/05 08:17:42;;;;;;;4.83;2.53;;;;;;;19.81;63.22;100836.88;5055411;28;20436;-70
2022/10/05 08:20:39;;;;;;;3.93;2.63;;;;;;;19.81;63.49;100836.88;5055746;28;20883;-70
2022/10/05 08:23:39;;;;;;;5.40;2.87;;;;;;;19.79;63.47;100831.53;5038381;28;20418;-68
2022/10/05 08:26:16;;;;;;;4.77;2.77;;;;;;;19.81;63.55;100837.69;5052376;28;20445;-70
2022/10/05 08:28:49;;;;;;;4.83;2.90;;;;;;;19.78;63.54;100829.03;5054107;28;20535;-70
2022/10/05 08:31:15;;;;;;;3.43;2.23;;;;;;;19.79;63.20;100827.81;5040128;28;20421;-70
2022/10/05 08:34:02;;;;;;;5.47;2.77;;;;;;;19.79;63.44;100827.81;5062921;28;20448;-70
2022/10/05 08:36:56;;;;;;;4.33;2.40;;;;;;;19.82;63.33;100830.75;5055578;28;20186;-70
2022/10/05 08:39:23;;;;;;;3.87;2.73;;;;;;;19.84;63.22;100825.50;5058254;28;20399;-71
2022/10/05 08:42:03;;;;;;;4.30;2.70;;;;;;;19.82;63.38;100824.22;5024042;28;20441;-70
2022/10/05 08:44:46;;;;;;;3.90;2.60;;;;;;;19.80;63.68;100829.47;5052843;28;20477;-70
2022/10/05 08:47:50;;;;;;;5.97;3.03;;;;;;;19.83;63.39;100818.13;5043021;28;20495;-70
2022/10/05 08:50:34;;;;;;;4.53;2.77;;;;;;;19.82;63.21;100822.16;5023466;28;20900;-69
2022/10/05 08:53:18;;;;;;;4.97;3.27;;;;;;;19.81;63.41;100817.66;5058348;28;20513;-70
2022/10/05 08:56:05;;;;;;;4.83;2.67;;;;;;;19.81;63.50;100820.50;5056346;28;20420;-70
2022/10/05 08:58:33;;;;;;;6.27;2.50;;;;;;;19.83;63.04;100815.25;5055986;28;20410;-70
2022/10/05 09:01:03;;;;;;;4.57;2.80;;;;;;;19.81;63.43;100817.66;5057438;28;20446;-70
2022/10/05 09:03:58;;;;;;;4.63;2.70;;;;;;;19.85;63.31;100817.72;5038802;28;20460;-70
2022/10/05 09:06:47;;;;;;;4.63;2.60;;;;;;;19.83;63.29;100809.53;5034071;28;20413;-70
2022/10/05 09:09:33;;;;;;;4.60;2.70;;;;;;;19.84;63.34;100807.47;5054650;28;21280;-70
2022/10/05 09:12:29;;;;;;;4.17;2.63;;;;;;;19.82;63.54;100798.44;5056194;28;20420;-69
2022/10/05 09:15:22;;;;;;;4.93;3.00;;;;;;;19.87;63.45;100790.34;5055362;28;20445;-70
2022/10/05 09:18:23;;;;;;;4.10;2.90;;;;;;;19.82;63.57;100799.25;5035915;28;20434;-70
2022/10/05 09:20:52;;;;;;;5.37;3.27;;;;;;;19.83;63.67;100795.19;5052522;28;21006;-70
2022/10/05 09:23:42;;;;;;;4.43;2.80;;;;;;;19.84;63.41;100793.97;5037500;28;20422;-70
2022/10/05 09:26:40;;;;;;;4.40;2.80;;;;;;;19.84;63.38;100784.53;5051768;28;20430;-70
2022/10/05 09:29:31;;;;;;;3.77;2.30;;;;;;;19.88;63.29;100792.03;5055217;28;20468;-71
2022/10/05 09:32:33;;;;;;;5.67;3.20;;;;;;;19.87;63.39;100795.25;5053883;28;20456;-70
2022/10/05 09:35:07;;;;;;;5.30;2.80;;;;;;;19.83;63.60;100789.47;5054887;28;20449;-70
2022/10/05 09:37:35;;;;;;;6.20;2.90;;;;;;;19.86;63.38;100785.81;5057209;28;21019;-69
2022/10/05 09:40:19;;;;;;;5.30;2.57;;;;;;;19.85;63.46;100778.44;5053838;28;20414;-70
2022/10/05 09:42:50;;;;;;;5.70;3.13;;;;;;;19.85;63.36;100775.56;5061010;28;20438;-70
2022/10/05 09:45:39;;;;;;;3.43;2.27;;;;;;;19.87;63.61;100772.34;5057697;28;20479;-71
2022/10/05 09:48:24;;;;;;;5.10;2.63;;;;;;;19.86;63.46;100768.63;5052652;28;20459;-70
2022/10/05 09:51:14;;;;;;;4.90;2.50;;;;;;;19.85;63.57;100775.56;5052453;28;20491;-69
2022/10/05 09:53:50;;;;;;;5.33;2.80;;;;;;;19.85;63.42;100769.00;5052136;28;20425;-70
2022/10/05 09:56:54;;;;;;;5.37;2.50;;;;;;;19.84;63.55;100756.72;5056447;28;20428;-70
2022/10/05 09:59:34;;;;;;;3.17;2.03;;;;;;;19.85;63.61;100755.50;5046289;28;20528;-71
2022/10/05 10:02:20;;;;;;;4.93;2.70;;;;;;;19.87;63.30;100755.94;5034780;28;20425;-70
2022/10/05 10:05:30;;;;;;;5.87;2.57;;;;;;;19.87;63.50;100752.28;5038151;28;20452;-70
2022/10/05 10:08:08;;;;;;;5.57;2.60;;;;;;;19.88;63.24;100748.19;4963389;28;21003;-70
2022/10/05 10:10:48;;;;;;;3.70;2.30;;;;;;;19.87;63.44;100741.63;4966968;28;20433;-71
2022/10/05 10:13:18;;;;;;;3.43;2.37;;;;;;;19.89;63.41;100742.09;5036746;28;20436;-70
2022/10/05 10:15:43;;;;;;;5.17;2.60;;;;;;;19.87;63.04;100733.03;5054069;28;20403;-70
2022/10/05 10:18:25;;;;;;;4.50;2.40;;;;;;;19.89;63.57;100739.22;5059121;28;21221;-69
2022/10/05 10:20:50;;;;;;;4.80;2.50;;;;;;;19.89;62.88;100729.78;5054241;28;20834;-69
2022/10/05 10:23:41;;;;;;;3.37;2.20;;;;;;;19.94;63.38;100738.91;5053016;28;20486;-70
2022/10/05 10:26:16;;;;;;;4.30;2.57;;;;;;;19.90;63.47;100726.56;5053876;28;20290;-70
2022/10/05 10:29:12;;;;;;;5.60;2.90;;;;;;;19.96;63.80;100730.75;5053625;28;20968;-70
2022/10/05 10:31:54;;;;;;;7.27;3.20;;;;;;;19.94;62.72;100736.06;5051512;28;20479;-70
2022/10/05 10:34:46;;;;;;;8.83;3.00;;;;;;;19.90;62.79;100737.16;5038722;28;20415;-69
2022/10/05 10:37:32;;;;;;;6.93;2.60;;;;;;;19.94;62.76;100735.22;5050886;28;20487;-70
2022/10/05 10:40:19;;;;;;;4.07;2.20;;;;;;;19.91;62.77;100733.94;5054408;28;20428;-71
2022/10/05 10:43:15;;;;;;;5.40;2.70;;;;;;;19.95;62.90;100734.00;5053236;28;20956;-70
2022/10/05 10:46:16;;;;;;;4.27;2.50;;;;;;;19.95;63.03;100722.53;5052132;28;20563;-70
2022/10/05 10:48:48;;;;;;;6.00;2.70;;;;;;;19.95;62.83;100725.41;5053976;28;20454;-70
2022/10/05 10:51:58;;;;;;;6.17;2.50;;;;;;;19.97;62.85;100726.69;5035557;28;20432;-70
2022/10/05 10:54:47;;;;;;;4.03;2.20;;;;;;;19.98;63.35;100727.50;5010709;28;20435;-70
2022/10/05 10:57:15;;;;;;;2.70;2.00;;;;;;;19.97;62.90;100729.53;5032213;28;20442;-70
2022/10/05 10:59:50;;;;;;;4.60;2.50;;;;;;;19.93;63.07;100720.06;5037945;28;20425;-70
2022/10/05 11:02:21;;;;;;;4.33;2.30;;;;;;;19.97;62.85;100728.72;5056599;28;20451;-70
2022/10/05 11:05:02;;;;;;;3.33;2.17;;;;;;;19.99;62.87;100724.28;5055273;28;20713;-70
2022/10/05 11:07:34;;;;;;;4.10;2.40;;;;;;;19.99;62.96;100721.41;5037507;28;20502;-69
2022/10/05 11:10:25;;;;;;;4.20;2.77;;;;;;;20.00;62.99;100716.50;5035635;28;20464;-71
2022/10/05 11:13:15;;;;;;;4.40;2.30;;;;;;;20.03;62.73;100716.59;5046072;28;21238;-70
2022/10/05 11:16:18;;;;;;;4.77;2.00;;;;;;;19.98;62.78;100716.91;5053087;28;20429;-69
2022/10/05 11:19:05;;;;;;;8.37;2.17;;;;;;;19.98;62.84;100718.91;5055771;28;20924;-69
2022/10/05 11:21:39;;;;;;;4.00;2.20;;;;;;;19.98;63.04;100716.91;5058422;28;20409;-70
2022/10/05 11:24:38;;;;;;;4.13;2.20;;;;;;;20.01;62.88;100706.69;5019079;28;21206;-70
2022/10/05 11:27:12;;;;;;;4.43;2.40;;;;;;;20.01;63.03;100710.38;5056809;28;20449;-70
2022/10/05 11:29:47;;;;;;;8.30;2.57;;;;;;;20.00;62.85;100705.88;5054838;28;20553;-71
2022/10/05 11:32:19;;;;;;;5.30;2.47;;;;;;;20.00;62.87;100708.72;5051148;28;20433;-71
2022/10/05 11:35:15;;;;;;;7.90;2.60;;;;;;;20.03;62.82;100690.78;5054443;28;20425;-69
2022/10/05 11:37:43;;;;;;;3.57;2.40;;;;;;;20.04;62.39;100692.44;5052480;28;20418;-70
2022/10/05 11:40:36;;;;;;;4.33;2.20;;;;;;;20.03;62.83;100695.69;5054620;28;20471;-69
2022/10/05 11:43:24;;;;;;;4.17;2.13;;;;;;;20.02;62.86;100691.97;5053608;28;20782;-71
2022/10/05 11:45:54;;;;;;;6.50;2.50;;;;;;;20.07;63.09;100685.94;5053275;28;20413;-70
2022/10/05 11:48:43;;;;;;;6.67;2.30;;;;;;;20.04;63.25;100701.03;5038994;28;20496;-70
2022/10/05 11:51:24;;;;;;;5.37;2.60;;;;;;;20.03;62.91;100695.69;5059496;28;20450;-69
2022/10/05 11:54:20;;;;;;;4.77;2.90;;;;;;;20.02;63.11;100679.69;5061108;28;20617;-70
2022/10/05 11:56:52;;;;;;;5.00;2.20;;;;;;;20.07;62.66;100685.94;5055493;28;20463;-70
2022/10/05 11:59:28;;;;;;;3.10;2.07;;;;;;;20.07;62.34;100679.38;5041595;28;20480;-71
2022/10/05 12:01:57;;;;;;;4.13;2.20;;;;;;;20.03;62.92;100676.44;5040063;28;20421;-70
2022/10/05 12:05:00;;;;;;;5.27;2.30;;;;;;;20.06;62.94;100672.81;5055375;28;20417;-69
2022/10/05 12:07:48;;;;;;;4.50;2.13;;;;;;;20.04;63.21;100668.66;5041313;28;20425;-70
2022/10/05 12:10:36;;;;;;;10.93;2.20;;;;;;;20.07;62.79;100653.59;5058377;28;20492;-70
2022/10/05 12:13:25;;;;;;;7.80;2.37;;;;;;;20.09;62.71;100662.66;5042337;28;20440;-69
2022/10/05 12:15:57;;;;;;;4.80;2.60;;;;;;;20.07;62.84;100657.28;5051278;28;20422;-70
2022/10/05 12:18:29;;;;;;;3.23;2.20;;;;;;;20.09;63.00;100654.03;5060051;28;20416;-70
2022/10/05 12:21:21;;;;;;;4.20;2.40;;;;;;;20.09;62.87;100652.03;5055387;28;20424;-70
2022/10/05 12:24:02;;;;;;;3.10;2.07;;;;;;;20.10;62.90;100647.94;5050341;28;20434;-70
2022/10/05 12:26:36;;;;;;;6.20;3.10;;;;;;;20.09;63.01;100642.56;5056180;28;20421;-70